CPX243 Details

Departure: Chicago/Rockford International Airport (KRFD)
Arrival: Huntsville International Airport (KHSV) at N/A
Route: JOT EMBRR BNA RQZ
Notes:


Current Weather Information
KRFD 191654Z 06007KT 10SM FEW048 SCT060 BKN075 27/19 A3005 RMK AO2 SLP172 T02670189
KHSV 191653Z 00000KT 10SM FEW050 FEW085 34/20 A3007 RMK AO2 SLP172 T03440200 $